sensor_id;sensor_type;location;lat;lon;timestamp;temperature;humidity
48007;DHT22;33771;48.180;11.400;2023-04-03T00:00:56;2.10;99.90
48007;DHT22;33771;48.180;11.400;2023-04-03T00:03:22;2.10;99.90
48007;DHT22;33771;48.180;11.400;2023-04-03T00:05:47;2.10;99.90
48007;DHT22;33771;48.180;11.400;2023-04-03T00:08:13;2.10;99.90
48007;DHT22;33771;48.180;11.400;2023-04-03T00:10:39;2.10;99.90
48007;DHT22;33771;48.180;11.400;2023-04-03T00:13:06;2.00;99.90
48007;DHT22;33771;48.180;11.400;2023-04-03T00:15:33;2.00;99.90
48007;DHT22;33771;48.180;11.400;2023-04-03T00:17:58;2.10;99.90
48007;DHT22;33771;48.180;11.400;2023-04-03T00:20:27;2.10;99.90
48007;DHT22;33771;48.180;11.400;2023-04-03T00:22:53;2.10;99.90
48007;DHT22;33771;48.180;11.400;2023-04-03T00:25:21;2.00;99.90
48007;DHT22;33771;48.180;11.400;2023-04-03T00:27:46;2.00;99.90
48007;DHT22;33771;48.180;11.400;2023-04-03T00:30:15;2.00;99.90
48007;DHT22;33771;48.180;11.400;2023-04-03T00:32:41;2.00;99.90
48007;DHT22;33771;48.180;11.400;2023-04-03T00:35:07;1.90;99.90
48007;DHT22;33771;48.180;11.400;2023-04-03T00:37:33;2.00;99.90
48007;DHT22;33771;48.180;11.400;2023-04-03T00:39:59;1.90;99.90
48007;DHT22;33771;48.180;11.400;2023-04-03T00:42:24;1.90;99.90
48007;DHT22;33771;48.180;11.400;2023-04-03T00:47:22;1.90;99.90
48007;DHT22;33771;48.180;11.400;2023-04-03T00:49:49;1.90;99.90
48007;DHT22;33771;48.180;11.400;2023-04-03T00:52:17;2.00;99.90
48007;DHT22;33771;48.180;11.400;2023-04-03T00:54:46;1.90;99.90
48007;DHT22;33771;48.180;11.400;2023-04-03T00:57:13;1.90;99.90
48007;DHT22;33771;48.180;11.400;2023-04-03T00:59:48;1.90;99.90
48007;DHT22;33771;48.180;11.400;2023-04-03T01:02:15;2.00;99.90
48007;DHT22;33771;48.180;11.400;2023-04-03T01:04:43;1.90;99.90
48007;DHT22;33771;48.180;11.400;2023-04-03T01:07:15;1.90;99.90
48007;DHT22;33771;48.180;11.400;2023-04-03T01:09:42;1.90;99.90
48007;DHT22;33771;48.180;11.400;2023-04-03T01:12:15;1.90;99.90
48007;DHT22;33771;48.180;11.400;2023-04-03T01:14:43;1.80;99.90
48007;DHT22;33771;48.180;11.400;2023-04-03T01:17:32;1.80;99.90
48007;DHT22;33771;48.180;11.400;2023-04-03T01:23:29;1.80;99.90
48007;DHT22;33771;48.180;11.400;2023-04-03T01:25:58;1.80;99.90
48007;DHT22;33771;48.180;11.400;2023-04-03T01:28:26;1.80;99.90
48007;DHT22;33771;48.180;11.400;2023-04-03T01:33:35;1.80;99.90
48007;DHT22;33771;48.180;11.400;2023-04-03T01:36:01;1.80;99.90
48007;DHT22;33771;48.180;11.400;2023-04-03T01:38:26;1.80;99.90
48007;DHT22;33771;48.180;11.400;2023-04-03T01:40:52;1.80;99.90
48007;DHT22;33771;48.180;11.400;2023-04-03T01:43:18;1.80;99.90
48007;DHT22;33771;48.180;11.400;2023-04-03T01:45:43;1.80;99.90
48007;DHT22;33771;48.180;11.400;2023-04-03T01:48:09;1.80;99.90
48007;DHT22;33771;48.180;11.400;2023-04-03T01:50:34;1.80;99.90
48007;DHT22;33771;48.180;11.400;2023-04-03T01:53:00;1.80;99.90
48007;DHT22;33771;48.180;11.400;2023-04-03T01:55:28;1.80;99.90
48007;DHT22;33771;48.180;11.400;2023-04-03T01:57:54;1.80;99.90
48007;DHT22;33771;48.180;11.400;2023-04-03T02:00:19;1.80;99.90
48007;DHT22;33771;48.180;11.400;2023-04-03T02:02:45;1.80;99.90
48007;DHT22;33771;48.180;11.400;2023-04-03T02:05:10;1.80;99.90
48007;DHT22;33771;48.180;11.400;2023-04-03T02:07:36;1.80;99.90
48007;DHT22;33771;48.180;11.400;2023-04-03T02:10:02;1.80;99.90
48007;DHT22;33771;48.180;11.400;2023-04-03T02:12:28;1.80;99.90
48007;DHT22;33771;48.180;11.400;2023-04-03T02:14:53;1.80;99.90
48007;DHT22;33771;48.180;11.400;2023-04-03T02:17:19;1.80;99.90
48007;DHT22;33771;48.180;11.400;2023-04-03T02:19:44;1.80;99.90
48007;DHT22;33771;48.180;11.400;2023-04-03T02:22:10;1.80;99.90
48007;DHT22;33771;48.180;11.400;2023-04-03T02:24:35;1.90;99.90
48007;DHT22;33771;48.180;11.400;2023-04-03T02:27:01;1.90;99.90
48007;DHT22;33771;48.180;11.400;2023-04-03T02:29:27;1.90;99.90
48007;DHT22;33771;48.180;11.400;2023-04-03T02:31:52;1.80;99.90
48007;DHT22;33771;48.180;11.400;2023-04-03T02:34:20;1.90;99.90
48007;DHT22;33771;48.180;11.400;2023-04-03T02:36:46;1.90;99.90
48007;DHT22;33771;48.180;11.400;2023-04-03T02:39:12;1.90;99.90
48007;DHT22;33771;48.180;11.400;2023-04-03T02:41:37;1.90;99.90
48007;DHT22;33771;48.180;11.400;2023-04-03T02:44:04;1.90;99.90
48007;DHT22;33771;48.180;11.400;2023-04-03T02:46:32;1.90;99.90
48007;DHT22;33771;48.180;11.400;2023-04-03T02:48:58;1.90;99.90
48007;DHT22;33771;48.180;11.400;2023-04-03T02:51:24;2.00;99.90
48007;DHT22;33771;48.180;11.400;2023-04-03T02:53:50;1.90;99.90
48007;DHT22;33771;48.180;11.400;2023-04-03T02:56:16;1.90;99.90
48007;DHT22;33771;48.180;11.400;2023-04-03T02:58:44;2.00;99.90
48007;DHT22;33771;48.180;11.400;2023-04-03T03:01:10;2.00;99.90
48007;DHT22;33771;48.180;11.400;2023-04-03T03:03:36;2.00;99.90
48007;DHT22;33771;48.180;11.400;2023-04-03T03:06:05;2.00;99.90
48007;DHT22;33771;48.180;11.400;2023-04-03T03:08:31;2.00;99.90
48007;DHT22;33771;48.180;11.400;2023-04-03T03:10:57;2.00;99.90
48007;DHT22;33771;48.180;11.400;2023-04-03T03:13:23;2.00;99.90
48007;DHT22;33771;48.180;11.400;2023-04-03T03:15:48;2.00;99.90
48007;DHT22;33771;48.180;11.400;2023-04-03T03:18:14;2.00;99.90
48007;DHT22;33771;48.180;11.400;2023-04-03T03:20:42;2.00;99.90
48007;DHT22;33771;48.180;11.400;2023-04-03T03:23:10;2.00;99.90
48007;DHT22;33771;48.180;11.400;2023-04-03T03:25:39;2.10;99.90
48007;DHT22;33771;48.180;11.400;2023-04-03T03:28:06;2.10;99.90
48007;DHT22;33771;48.180;11.400;2023-04-03T03:30:34;2.10;99.90
48007;DHT22;33771;48.180;11.400;2023-04-03T03:33:00;2.10;99.90
48007;DHT22;33771;48.180;11.400;2023-04-03T03:37:53;2.10;99.90
48007;DHT22;33771;48.180;11.400;2023-04-03T03:40:19;2.10;99.90
48007;DHT22;33771;48.180;11.400;2023-04-03T03:42:44;2.10;99.90
48007;DHT22;33771;48.180;11.400;2023-04-03T03:45:10;2.10;99.90
48007;DHT22;33771;48.180;11.400;2023-04-03T03:47:36;2.10;99.90
48007;DHT22;33771;48.180;11.400;2023-04-03T03:50:02;2.10;99.90
48007;DHT22;33771;48.180;11.400;2023-04-03T03:52:27;2.10;99.90
48007;DHT22;33771;48.180;11.400;2023-04-03T03:54:53;2.10;99.90
48007;DHT22;33771;48.180;11.400;2023-04-03T03:57:19;2.10;99.90
48007;DHT22;33771;48.180;11.400;2023-04-03T03:59:44;2.10;99.90
48007;DHT22;33771;48.180;11.400;2023-04-03T04:02:10;2.10;99.90
48007;DHT22;33771;48.180;11.400;2023-04-03T04:04:36;2.10;99.90
48007;DHT22;33771;48.180;11.400;2023-04-03T04:07:02;2.20;99.90
48007;DHT22;33771;48.180;11.400;2023-04-03T04:09:28;2.20;99.90
48007;DHT22;33771;48.180;11.400;2023-04-03T04:11:54;2.20;99.90
48007;DHT22;33771;48.180;11.400;2023-04-03T04:14:19;2.20;99.90
48007;DHT22;33771;48.180;11.400;2023-04-03T04:16:48;2.20;99.90
48007;DHT22;33771;48.180;11.400;2023-04-03T04:19:14;2.20;99.90
48007;DHT22;33771;48.180;11.400;2023-04-03T04:21:40;2.10;99.90
48007;DHT22;33771;48.180;11.400;2023-04-03T04:24:07;2.10;99.90
48007;DHT22;33771;48.180;11.400;2023-04-03T04:26:33;2.10;99.90
48007;DHT22;33771;48.180;11.400;2023-04-03T04:28:58;2.10;99.90
48007;DHT22;33771;48.180;11.400;2023-04-03T04:31:24;2.10;99.90
48007;DHT22;33771;48.180;11.400;2023-04-03T04:33:49;2.10;99.90
48007;DHT22;33771;48.180;11.400;2023-04-03T04:36:15;2.10;99.90
48007;DHT22;33771;48.180;11.400;2023-04-03T04:38:41;2.10;99.90
48007;DHT22;33771;48.180;11.400;2023-04-03T04:41:12;2.20;99.90
48007;DHT22;33771;48.180;11.400;2023-04-03T04:43:38;2.20;99.90
48007;DHT22;33771;48.180;11.400;2023-04-03T04:46:06;2.20;99.90
48007;DHT22;33771;48.180;11.400;2023-04-03T04:48:33;2.20;99.90
48007;DHT22;33771;48.180;11.400;2023-04-03T04:50:58;2.20;99.90
48007;DHT22;33771;48.180;11.400;2023-04-03T04:53:24;2.20;99.90
48007;DHT22;33771;48.180;11.400;2023-04-03T04:55:51;2.20;99.90
48007;DHT22;33771;48.180;11.400;2023-04-03T04:58:17;2.20;99.90
48007;DHT22;33771;48.180;11.400;2023-04-03T05:00:42;2.20;99.90
48007;DHT22;33771;48.180;11.400;2023-04-03T05:03:08;2.20;99.90
48007;DHT22;33771;48.180;11.400;2023-04-03T05:05:33;2.10;99.90
48007;DHT22;33771;48.180;11.400;2023-04-03T05:08:08;2.20;99.90
48007;DHT22;33771;48.180;11.400;2023-04-03T05:10:33;2.10;99.90
48007;DHT22;33771;48.180;11.400;2023-04-03T05:12:59;2.10;99.90
48007;DHT22;33771;48.180;11.400;2023-04-03T05:15:25;2.10;99.90
48007;DHT22;33771;48.180;11.400;2023-04-03T05:17:50;2.10;99.90
48007;DHT22;33771;48.180;11.400;2023-04-03T05:20:16;2.20;99.90
48007;DHT22;33771;48.180;11.400;2023-04-03T05:22:42;2.20;99.90
48007;DHT22;33771;48.180;11.400;2023-04-03T05:25:07;2.20;99.90
48007;DHT22;33771;48.180;11.400;2023-04-03T05:27:33;2.20;99.90
48007;DHT22;33771;48.180;11.400;2023-04-03T05:29:59;2.20;99.90
48007;DHT22;33771;48.180;11.400;2023-04-03T05:32:25;2.20;99.90
48007;DHT22;33771;48.180;11.400;2023-04-03T05:34:53;2.20;99.90
48007;DHT22;33771;48.180;11.400;2023-04-03T05:37:18;2.20;99.90
48007;DHT22;33771;48.180;11.400;2023-04-03T05:39:44;2.20;99.90
48007;DHT22;33771;48.180;11.400;2023-04-03T05:42:10;2.20;99.90
48007;DHT22;33771;48.180;11.400;2023-04-03T05:44:37;2.20;99.90
48007;DHT22;33771;48.180;11.400;2023-04-03T05:47:03;2.20;99.90
48007;DHT22;33771;48.180;11.400;2023-04-03T05:49:32;2.20;99.90
48007;DHT22;33771;48.180;11.400;2023-04-03T05:51:58;2.20;99.90
48007;DHT22;33771;48.180;11.400;2023-04-03T05:54:25;2.20;99.90
48007;DHT22;33771;48.180;11.400;2023-04-03T05:56:52;2.30;99.90
48007;DHT22;33771;48.180;11.400;2023-04-03T05:59:19;2.30;99.90
48007;DHT22;33771;48.180;11.400;2023-04-03T06:01:48;2.30;99.90
48007;DHT22;33771;48.180;11.400;2023-04-03T06:04:16;2.30;99.90
48007;DHT22;33771;48.180;11.400;2023-04-03T06:06:57;2.30;99.90
48007;DHT22;33771;48.180;11.400;2023-04-03T06:09:27;2.40;99.90
48007;DHT22;33771;48.180;11.400;2023-04-03T06:11:57;2.30;99.90
48007;DHT22;33771;48.180;11.400;2023-04-03T06:14:28;2.40;99.90
48007;DHT22;33771;48.180;11.400;2023-04-03T06:16:54;2.40;99.90
48007;DHT22;33771;48.180;11.400;2023-04-03T06:19:29;2.40;99.90
48007;DHT22;33771;48.180;11.400;2023-04-03T06:21:56;2.40;99.90
48007;DHT22;33771;48.180;11.400;2023-04-03T06:24:22;2.50;99.90
48007;DHT22;33771;48.180;11.400;2023-04-03T06:26:50;2.50;99.90
48007;DHT22;33771;48.180;11.400;2023-04-03T06:29:16;2.50;99.90
48007;DHT22;33771;48.180;11.400;2023-04-03T06:31:42;2.50;99.90
48007;DHT22;33771;48.180;11.400;2023-04-03T06:34:08;2.60;99.90
48007;DHT22;33771;48.180;11.400;2023-04-03T06:36:34;2.70;99.90
48007;DHT22;33771;48.180;11.400;2023-04-03T06:39:00;2.70;99.90
48007;DHT22;33771;48.180;11.400;2023-04-03T06:41:30;2.80;99.90
48007;DHT22;33771;48.180;11.400;2023-04-03T06:43:58;2.80;99.90
48007;DHT22;33771;48.180;11.400;2023-04-03T06:46:25;2.80;99.90
48007;DHT22;33771;48.180;11.400;2023-04-03T06:48:51;2.90;99.90
48007;DHT22;33771;48.180;11.400;2023-04-03T06:51:20;2.90;99.90
48007;DHT22;33771;48.180;11.400;2023-04-03T06:53:51;3.00;99.90
48007;DHT22;33771;48.180;11.400;2023-04-03T06:56:18;3.00;99.90
48007;DHT22;33771;48.180;11.400;2023-04-03T06:58:45;3.00;99.90
48007;DHT22;33771;48.180;11.400;2023-04-03T07:01:14;3.00;99.90
48007;DHT22;33771;48.180;11.400;2023-04-03T07:03:40;3.00;99.90
48007;DHT22;33771;48.180;11.400;2023-04-03T07:06:06;3.10;99.90
48007;DHT22;33771;48.180;11.400;2023-04-03T07:08:34;3.10;99.90
48007;DHT22;33771;48.180;11.400;2023-04-03T07:11:00;3.10;99.90
48007;DHT22;33771;48.180;11.400;2023-04-03T07:13:26;3.20;99.90
48007;DHT22;33771;48.180;11.400;2023-04-03T07:15:52;3.30;99.90
48007;DHT22;33771;48.180;11.400;2023-04-03T07:18:18;3.30;99.90
48007;DHT22;33771;48.180;11.400;2023-04-03T07:20:43;3.30;99.90
48007;DHT22;33771;48.180;11.400;2023-04-03T07:23:09;3.30;99.90
48007;DHT22;33771;48.180;11.400;2023-04-03T07:25:36;3.40;99.90
48007;DHT22;33771;48.180;11.400;2023-04-03T07:28:02;3.50;99.90
48007;DHT22;33771;48.180;11.400;2023-04-03T07:30:27;3.50;99.90
48007;DHT22;33771;48.180;11.400;2023-04-03T07:32:53;3.60;99.90
48007;DHT22;33771;48.180;11.400;2023-04-03T07:35:19;3.70;99.90
48007;DHT22;33771;48.180;11.400;2023-04-03T07:37:44;3.70;99.90
48007;DHT22;33771;48.180;11.400;2023-04-03T07:40:10;3.70;99.90
48007;DHT22;33771;48.180;11.400;2023-04-03T07:42:36;3.80;99.90
48007;DHT22;33771;48.180;11.400;2023-04-03T07:45:03;3.80;99.90
48007;DHT22;33771;48.180;11.400;2023-04-03T07:47:28;3.80;99.90
48007;DHT22;33771;48.180;11.400;2023-04-03T07:49:54;3.80;99.90
48007;DHT22;33771;48.180;11.400;2023-04-03T07:52:19;3.80;99.90
48007;DHT22;33771;48.180;11.400;2023-04-03T07:54:45;3.90;99.90
48007;DHT22;33771;48.180;11.400;2023-04-03T07:57:10;3.90;99.90
48007;DHT22;33771;48.180;11.400;2023-04-03T07:59:36;4.00;99.90
48007;DHT22;33771;48.180;11.400;2023-04-03T08:02:05;4.10;99.90
48007;DHT22;33771;48.180;11.400;2023-04-03T08:04:30;4.10;99.90
48007;DHT22;33771;48.180;11.400;2023-04-03T08:06:56;4.00;99.90
48007;DHT22;33771;48.180;11.400;2023-04-03T08:09:21;4.10;99.90
48007;DHT22;33771;48.180;11.400;2023-04-03T08:11:47;4.10;99.90
48007;DHT22;33771;48.180;11.400;2023-04-03T08:14:16;4.10;99.90
48007;DHT22;33771;48.180;11.400;2023-04-03T08:16:46;4.10;99.90
48007;DHT22;33771;48.180;11.400;2023-04-03T08:19:11;4.20;99.90
48007;DHT22;33771;48.180;11.400;2023-04-03T08:21:40;4.20;99.90
48007;DHT22;33771;48.180;11.400;2023-04-03T08:24:07;4.20;99.90
48007;DHT22;33771;48.180;11.400;2023-04-03T08:26:32;4.10;99.90
48007;DHT22;33771;48.180;11.400;2023-04-03T08:28:58;4.10;99.90
48007;DHT22;33771;48.180;11.400;2023-04-03T08:31:23;4.20;99.90
48007;DHT22;33771;48.180;11.400;2023-04-03T08:33:49;4.20;99.90
48007;DHT22;33771;48.180;11.400;2023-04-03T08:36:26;4.20;99.90
48007;DHT22;33771;48.180;11.400;2023-04-03T08:38:54;4.20;99.90
48007;DHT22;33771;48.180;11.400;2023-04-03T08:41:35;4.10;99.90
48007;DHT22;33771;48.180;11.400;2023-04-03T08:52:03;4.40;99.90
48007;DHT22;33771;48.180;11.400;2023-04-03T08:54:57;4.40;99.90
48007;DHT22;33771;48.180;11.400;2023-04-03T08:57:33;4.50;99.90
48007;DHT22;33771;48.180;11.400;2023-04-03T09:00:06;4.50;99.90
48007;DHT22;33771;48.180;11.400;2023-04-03T09:02:39;4.50;99.90
48007;DHT22;33771;48.180;11.400;2023-04-03T09:05:13;4.50;99.90
48007;DHT22;33771;48.180;11.400;2023-04-03T09:08:21;4.50;99.90
48007;DHT22;33771;48.180;11.400;2023-04-03T09:10:38;4.50;99.90
48007;DHT22;33771;48.180;11.400;2023-04-03T09:13:19;4.60;99.90
48007;DHT22;33771;48.180;11.400;2023-04-03T09:15:46;4.60;99.90
48007;DHT22;33771;48.180;11.400;2023-04-03T09:18:32;4.70;99.90
48007;DHT22;33771;48.180;11.400;2023-04-03T09:21:10;4.70;99.90
48007;DHT22;33771;48.180;11.400;2023-04-03T09:23:49;4.60;99.90
48007;DHT22;33771;48.180;11.400;2023-04-03T09:26:36;4.60;99.90
48007;DHT22;33771;48.180;11.400;2023-04-03T09:29:07;4.70;99.90
48007;DHT22;33771;48.180;11.400;2023-04-03T09:31:44;4.70;99.90
48007;DHT22;33771;48.180;11.400;2023-04-03T09:34:31;4.80;99.90
48007;DHT22;33771;48.180;11.400;2023-04-03T09:36:59;4.80;99.90
48007;DHT22;33771;48.180;11.400;2023-04-03T09:39:31;4.90;99.90
48007;DHT22;33771;48.180;11.400;2023-04-03T09:41:58;4.80;99.90
48007;DHT22;33771;48.180;11.400;2023-04-03T09:44:32;4.90;99.90
48007;DHT22;33771;48.180;11.400;2023-04-03T09:47:00;4.80;99.90
48007;DHT22;33771;48.180;11.400;2023-04-03T09:49:42;4.80;99.90
48007;DHT22;33771;48.180;11.400;2023-04-03T09:52:23;4.70;99.90
48007;DHT22;33771;48.180;11.400;2023-04-03T09:54:49;4.60;99.90
48007;DHT22;33771;48.180;11.400;2023-04-03T09:57:15;4.50;99.90
48007;DHT22;33771;48.180;11.400;2023-04-03T09:59:59;4.50;99.90
48007;DHT22;33771;48.180;11.400;2023-04-03T10:02:37;4.50;99.90
48007;DHT22;33771;48.180;11.400;2023-04-03T10:05:30;4.50;99.90
48007;DHT22;33771;48.180;11.400;2023-04-03T10:10:43;4.60;99.90
48007;DHT22;33771;48.180;11.400;2023-04-03T10:15:46;4.70;99.90
48007;DHT22;33771;48.180;11.400;2023-04-03T10:21:02;4.60;99.90
48007;DHT22;33771;48.180;11.400;2023-04-03T10:23:44;4.60;99.90
48007;DHT22;33771;48.180;11.400;2023-04-03T10:26:23;4.60;99.90
48007;DHT22;33771;48.180;11.400;2023-04-03T10:29:25;4.70;99.90
48007;DHT22;33771;48.180;11.400;2023-04-03T10:32:20;4.70;99.90
48007;DHT22;33771;48.180;11.400;2023-04-03T10:38:01;4.40;99.90
48007;DHT22;33771;48.180;11.400;2023-04-03T10:40:30;4.20;99.90
48007;DHT22;33771;48.180;11.400;2023-04-03T10:43:47;4.10;99.90
48007;DHT22;33771;48.180;11.400;2023-04-03T10:46:32;4.00;99.90
48007;DHT22;33771;48.180;11.400;2023-04-03T10:51:51;4.00;99.90
48007;DHT22;33771;48.180;11.400;2023-04-03T10:54:26;4.00;99.90
48007;DHT22;33771;48.180;11.400;2023-04-03T10:57:02;4.00;99.90
48007;DHT22;33771;48.180;11.400;2023-04-03T10:59:40;4.20;99.90
48007;DHT22;33771;48.180;11.400;2023-04-03T11:02:23;4.30;99.90
48007;DHT22;33771;48.180;11.400;2023-04-03T11:04:53;4.40;99.90
48007;DHT22;33771;48.180;11.400;2023-04-03T11:07:23;4.50;99.90
48007;DHT22;33771;48.180;11.400;2023-04-03T11:09:59;4.70;99.90
48007;DHT22;33771;48.180;11.400;2023-04-03T11:12:33;4.80;99.90
48007;DHT22;33771;48.180;11.400;2023-04-03T11:15:02;4.90;99.90
48007;DHT22;33771;48.180;11.400;2023-04-03T11:17:41;5.00;99.90
48007;DHT22;33771;48.180;11.400;2023-04-03T11:22:57;5.20;99.90
48007;DHT22;33771;48.180;11.400;2023-04-03T11:25:25;5.20;99.90
48007;DHT22;33771;48.180;11.400;2023-04-03T11:27:54;5.20;99.90
48007;DHT22;33771;48.180;11.400;2023-04-03T11:30:44;5.30;99.90
48007;DHT22;33771;48.180;11.400;2023-04-03T11:35:43;5.30;99.90
48007;DHT22;33771;48.180;11.400;2023-04-03T11:41:11;5.30;99.90
48007;DHT22;33771;48.180;11.400;2023-04-03T11:43:54;5.20;99.90
48007;DHT22;33771;48.180;11.400;2023-04-03T11:46:21;5.10;99.90
48007;DHT22;33771;48.180;11.400;2023-04-03T11:48:48;5.10;99.90
48007;DHT22;33771;48.180;11.400;2023-04-03T11:53:46;5.10;99.90
48007;DHT22;33771;48.180;11.400;2023-04-03T11:56:27;5.20;99.90
48007;DHT22;33771;48.180;11.400;2023-04-03T12:04:16;5.40;99.90
48007;DHT22;33771;48.180;11.400;2023-04-03T12:09:28;5.60;99.90
48007;DHT22;33771;48.180;11.400;2023-04-03T12:11:57;5.60;99.90
48007;DHT22;33771;48.180;11.400;2023-04-03T12:14:28;5.80;99.90
48007;DHT22;33771;48.180;11.400;2023-04-03T12:16:57;6.00;99.90
48007;DHT22;33771;48.180;11.400;2023-04-03T12:24:31;6.20;99.90
48007;DHT22;33771;48.180;11.400;2023-04-03T12:32:35;6.70;99.90
48007;DHT22;33771;48.180;11.400;2023-04-03T12:45:51;6.70;99.90
48007;DHT22;33771;48.180;11.400;2023-04-03T12:48:22;6.70;99.90
48007;DHT22;33771;48.180;11.400;2023-04-03T12:50:50;6.70;99.90
48007;DHT22;33771;48.180;11.400;2023-04-03T12:53:25;6.70;99.90
48007;DHT22;33771;48.180;11.400;2023-04-03T12:55:56;6.70;99.90
48007;DHT22;33771;48.180;11.400;2023-04-03T12:58:24;6.80;99.90
48007;DHT22;33771;48.180;11.400;2023-04-03T13:01:04;7.00;99.90
48007;DHT22;33771;48.180;11.400;2023-04-03T13:03:37;7.00;99.90
48007;DHT22;33771;48.180;11.400;2023-04-03T13:06:06;7.00;99.90
48007;DHT22;33771;48.180;11.400;2023-04-03T13:08:32;7.10;99.90
48007;DHT22;33771;48.180;11.400;2023-04-03T13:11:04;7.20;99.90
48007;DHT22;33771;48.180;11.400;2023-04-03T13:13:31;7.10;99.90
48007;DHT22;33771;48.180;11.400;2023-04-03T13:15:58;7.00;99.90
48007;DHT22;33771;48.180;11.400;2023-04-03T13:18:37;6.90;99.90
48007;DHT22;33771;48.180;11.400;2023-04-03T13:21:11;6.80;99.90
48007;DHT22;33771;48.180;11.400;2023-04-03T13:23:41;6.80;99.90
48007;DHT22;33771;48.180;11.400;2023-04-03T13:26:09;6.80;99.90
48007;DHT22;33771;48.180;11.400;2023-04-03T13:28:35;6.80;99.90
48007;DHT22;33771;48.180;11.400;2023-04-03T13:31:06;6.90;99.90
48007;DHT22;33771;48.180;11.400;2023-04-03T13:33:36;7.20;99.90
48007;DHT22;33771;48.180;11.400;2023-04-03T13:36:04;7.30;99.90
48007;DHT22;33771;48.180;11.400;2023-04-03T13:38:32;7.40;99.90
48007;DHT22;33771;48.180;11.400;2023-04-03T13:41:20;7.30;99.90
48007;DHT22;33771;48.180;11.400;2023-04-03T13:43:46;7.10;99.90
48007;DHT22;33771;48.180;11.400;2023-04-03T13:48:41;6.60;99.90
48007;DHT22;33771;48.180;11.400;2023-04-03T13:51:28;6.30;99.90
48007;DHT22;33771;48.180;11.400;2023-04-03T13:53:59;6.10;99.90
48007;DHT22;33771;48.180;11.400;2023-04-03T13:56:27;6.00;99.90
48007;DHT22;33771;48.180;11.400;2023-04-03T13:59:22;6.00;99.90
48007;DHT22;33771;48.180;11.400;2023-04-03T14:02:05;6.00;99.90
48007;DHT22;33771;48.180;11.400;2023-04-03T14:07:03;6.10;99.90
48007;DHT22;33771;48.180;11.400;2023-04-03T14:09:28;6.10;99.90
48007;DHT22;33771;48.180;11.400;2023-04-03T14:11:58;6.10;99.90
48007;DHT22;33771;48.180;11.400;2023-04-03T14:14:31;6.10;99.90
48007;DHT22;33771;48.180;11.400;2023-04-03T14:17:00;6.20;99.90
48007;DHT22;33771;48.180;11.400;2023-04-03T14:19:30;6.20;99.90
48007;DHT22;33771;48.180;11.400;2023-04-03T14:21:58;6.30;99.90
48007;DHT22;33771;48.180;11.400;2023-04-03T14:24:24;6.50;99.90
48007;DHT22;33771;48.180;11.400;2023-04-03T14:26:52;6.50;99.90
48007;DHT22;33771;48.180;11.400;2023-04-03T14:29:19;6.70;99.90
48007;DHT22;33771;48.180;11.400;2023-04-03T14:31:46;6.80;99.90
48007;DHT22;33771;48.180;11.400;2023-04-03T14:34:13;7.10;99.90
48007;DHT22;33771;48.180;11.400;2023-04-03T14:36:40;7.30;99.90
48007;DHT22;33771;48.180;11.400;2023-04-03T14:39:10;7.20;99.90
48007;DHT22;33771;48.180;11.400;2023-04-03T14:41:36;7.00;99.90
48007;DHT22;33771;48.180;11.400;2023-04-03T14:44:02;6.80;99.90
48007;DHT22;33771;48.180;11.400;2023-04-03T14:46:34;6.80;99.90
48007;DHT22;33771;48.180;11.400;2023-04-03T14:49:00;7.00;99.90
48007;DHT22;33771;48.180;11.400;2023-04-03T14:51:26;7.30;99.90
48007;DHT22;33771;48.180;11.400;2023-04-03T14:53:52;7.40;99.90
48007;DHT22;33771;48.180;11.400;2023-04-03T14:56:19;7.50;99.90
48007;DHT22;33771;48.180;11.400;2023-04-03T14:58:47;7.60;99.90
48007;DHT22;33771;48.180;11.400;2023-04-03T15:01:16;7.70;99.90
48007;DHT22;33771;48.180;11.400;2023-04-03T15:03:41;7.70;99.90
48007;DHT22;33771;48.180;11.400;2023-04-03T15:06:10;7.50;99.90
48007;DHT22;33771;48.180;11.400;2023-04-03T15:08:36;7.40;99.90
48007;DHT22;33771;48.180;11.400;2023-04-03T15:11:02;7.50;99.90
48007;DHT22;33771;48.180;11.400;2023-04-03T15:13:28;7.40;99.90
48007;DHT22;33771;48.180;11.400;2023-04-03T15:15:53;7.40;99.90
48007;DHT22;33771;48.180;11.400;2023-04-03T15:18:25;7.50;99.90
48007;DHT22;33771;48.180;11.400;2023-04-03T15:20:57;7.50;99.90
48007;DHT22;33771;48.180;11.400;2023-04-03T15:23:23;7.50;99.90
48007;DHT22;33771;48.180;11.400;2023-04-03T15:25:54;7.50;99.90
48007;DHT22;33771;48.180;11.400;2023-04-03T15:28:41;7.40;99.90
48007;DHT22;33771;48.180;11.400;2023-04-03T15:31:09;7.20;99.90
48007;DHT22;33771;48.180;11.400;2023-04-03T15:33:40;6.90;99.90
48007;DHT22;33771;48.180;11.400;2023-04-03T15:36:05;6.70;99.90
48007;DHT22;33771;48.180;11.400;2023-04-03T15:38:31;6.60;99.90
48007;DHT22;33771;48.180;11.400;2023-04-03T15:40:57;6.70;99.90
48007;DHT22;33771;48.180;11.400;2023-04-03T15:43:23;6.70;99.90
48007;DHT22;33771;48.180;11.400;2023-04-03T15:45:49;6.70;99.90
48007;DHT22;33771;48.180;11.400;2023-04-03T15:48:16;6.70;99.90
48007;DHT22;33771;48.180;11.400;2023-04-03T15:50:45;6.80;99.90
48007;DHT22;33771;48.180;11.400;2023-04-03T15:53:11;6.80;99.90
48007;DHT22;33771;48.180;11.400;2023-04-03T15:55:37;6.80;99.90
48007;DHT22;33771;48.180;11.400;2023-04-03T15:58:03;6.70;99.90
48007;DHT22;33771;48.180;11.400;2023-04-03T16:00:30;6.50;99.90
48007;DHT22;33771;48.180;11.400;2023-04-03T16:03:04;6.20;99.90
48007;DHT22;33771;48.180;11.400;2023-04-03T16:05:31;6.00;99.90
48007;DHT22;33771;48.180;11.400;2023-04-03T16:07:59;6.00;99.90
48007;DHT22;33771;48.180;11.400;2023-04-03T16:10:25;6.00;99.90
48007;DHT22;33771;48.180;11.400;2023-04-03T16:12:51;6.10;99.90
48007;DHT22;33771;48.180;11.400;2023-04-03T16:15:17;6.10;99.90
48007;DHT22;33771;48.180;11.400;2023-04-03T16:17:42;6.10;99.90
48007;DHT22;33771;48.180;11.400;2023-04-03T16:20:09;6.10;99.90
48007;DHT22;33771;48.180;11.400;2023-04-03T16:22:37;6.00;99.90
48007;DHT22;33771;48.180;11.400;2023-04-03T16:25:04;6.00;99.90
48007;DHT22;33771;48.180;11.400;2023-04-03T16:27:30;6.00;99.90
48007;DHT22;33771;48.180;11.400;2023-04-03T16:29:59;6.00;99.90
48007;DHT22;33771;48.180;11.400;2023-04-03T16:32:35;5.90;99.90
48007;DHT22;33771;48.180;11.400;2023-04-03T16:35:01;6.00;99.90
48007;DHT22;33771;48.180;11.400;2023-04-03T16:37:29;5.90;99.90
48007;DHT22;33771;48.180;11.400;2023-04-03T16:40:01;5.80;99.90
48007;DHT22;33771;48.180;11.400;2023-04-03T16:42:28;5.60;99.90
48007;DHT22;33771;48.180;11.400;2023-04-03T16:44:53;5.50;99.90
48007;DHT22;33771;48.180;11.400;2023-04-03T16:47:19;5.40;99.90
48007;DHT22;33771;48.180;11.400;2023-04-03T16:49:50;5.30;99.90
48007;DHT22;33771;48.180;11.400;2023-04-03T16:52:23;5.20;99.90
48007;DHT22;33771;48.180;11.400;2023-04-03T16:54:51;5.10;99.90
48007;DHT22;33771;48.180;11.400;2023-04-03T16:57:21;5.00;99.90
48007;DHT22;33771;48.180;11.400;2023-04-03T16:59:47;5.00;99.90